Terminal Aerodrome Forecast
Issued by NWS

Home | Current Version | Previous Version | Text Only | Print | Product List | Glossary On
Versions: 1 2 3 4 5 6 7 8 9 10 11 12 13 14 15 16 17 18 19 20 21
000
FTUS43 KAPX 202300
TAFAPN
TAF
KAPN 202320Z 2100/2124 VRB03KT P6SM VCSH BKN009 OVC015
     FM210300 VRB03KT 3SM BR OVC008
     FM210600 00000KT 1SM BR OVC004
     FM210900 00000KT 1/2SM FG OVC002
     FM211400 VRB03KT 3SM BR OVC005
     FM211700 11005KT P6SM BKN018=

USA.gov is the U.S. government's official web portal to all federal, state and local government web resources and services.